Inicio METAR Ruta Wind Satelite

Informe Meteorológico

Fecha: 2020/11/30 15:37:18 Local
2020.11.30 20:37 UTC


Estado: VIGENTE
Operación:VFR
San Andres Isla / Sesquicentenario, Colombia (SKSP) 12-35N 081-43W 6M
Nov 30, 2020 - 03:00 PM EST / 2020.11.30 2000 UTC
Wind: from the NE (050 degrees) at 8 MPH (7 KT):0
Visibility: greater than 7 mile(s):0
Sky conditions: overcast
Weather: light drizzle
Temperature: 80 F (27 C)
Dew Point: 77 F (25 C)
Relative Humidity: 88%
Pressure (altimeter): 29.84 in. Hg (1010 hPa)
ob: SKSP 302000Z 05007KT 9999 -DZ FEW012 OVC080 27/25 A2984
cycle: 20

SKSP 301900Z 06010KT 9999 FEW014 OVC080 28/25 A2986
SKSP 301800Z 06012KT 9999 FEW014 OVC080 28/25 A2989
SKSP 301700Z 04011KT 020V080 9999 SCT016 BKN090 29/25 A2990
SKSP 301600Z 04009KT 9999 FEW017 BKN090 29/26 A2992 REDZ
SKSP 301400Z 04010KT 020V080 9999 -DZ FEW015 BKN080 27/25 A2991

2020/11/30 18:50
TAF SKSP 301630Z 3018/0118 04012KT 9999 SCT015TCU SCT090 PROB40 3018/3022 7000 SHRA PROB40
TEMPO 0103/0107 8000 DZRA
BECMG 0107/0109 FEW015 BKN080 PROB30
TEMPO 0114/0116 8000 DZ TX30/3019Z TN26/0110Z